Time;durP1;ratioP1;P1;durP2;ratioP2;P2;SDS_P1;SDS_P2;PMS_P1;PMS_P2;Temp;Humidity;BMP_temperature;BMP_pressure;BME280_temperature;BME280_humidity;BME280_pressure;Samples;Min_cycle;Max_cycle;Signal;HPM_P1;HPM_P2
2023/02/10 00:02:55;;;;;;;92.63;38.27;;;1.10;99.90;;;;;;5068290;28;20287;-65
2023/02/10 00:06:04;;;;;;;94.90;40.60;;;1.00;99.90;;;;;;5068476;28;20233;-65
2023/02/10 00:09:13;;;;;;;91.93;38.57;;;0.90;99.90;;;;;;5069997;28;20300;-65
2023/02/10 00:12:19;;;;;;;90.73;40.37;;;0.90;99.90;;;;;;5067284;28;20720;-66
2023/02/10 00:15:25;;;;;;;97.10;42.20;;;0.90;99.90;;;;;;5071528;28;20227;-65
2023/02/10 00:18:31;;;;;;;111.10;40.43;;;0.90;99.90;;;;;;5066266;28;20222;-65
2023/02/10 00:21:38;;;;;;;102.67;41.97;;;1.00;99.90;;;;;;5069176;28;20191;-65
2023/02/10 00:24:44;;;;;;;103.70;42.33;;;1.00;99.90;;;;;;5068066;28;20230;-65
2023/02/10 00:27:49;;;;;;;105.13;41.90;;;0.90;99.90;;;;;;5070033;28;20222;-65
2023/02/10 00:30:55;;;;;;;120.43;43.73;;;0.90;99.90;;;;;;5067206;28;20781;-65
2023/02/10 00:34:01;;;;;;;124.50;44.80;;;0.90;99.90;;;;;;5067152;28;20218;-65
2023/02/10 00:37:08;;;;;;;164.33;43.53;;;0.90;99.90;;;;;;5072408;28;20329;-65
2023/02/10 00:40:15;;;;;;;146.80;42.80;;;1.10;99.90;;;;;;5068889;28;20339;-65
2023/02/10 00:43:21;;;;;;;130.80;43.47;;;1.10;99.90;;;;;;5062100;28;20819;-65
2023/02/10 00:46:27;;;;;;;159.50;43.50;;;1.10;99.90;;;;;;5065489;28;20298;-66
2023/02/10 00:49:33;;;;;;;144.97;42.63;;;1.00;99.90;;;;;;5067956;28;20223;-65
2023/02/10 00:52:40;;;;;;;120.23;44.80;;;0.90;99.90;;;;;;5070491;28;20226;-65
2023/02/10 00:55:46;;;;;;;137.70;45.10;;;0.80;99.90;;;;;;5066058;28;20210;-65
2023/02/10 00:58:52;;;;;;;113.63;43.60;;;0.80;99.90;;;;;;5065141;28;20341;-65
2023/02/10 01:01:57;;;;;;;120.20;43.90;;;0.70;99.90;;;;;;5068007;28;20230;-65
2023/02/10 01:05:04;;;;;;;113.30;42.87;;;0.70;99.90;;;;;;5067661;28;20215;-65
2023/02/10 01:08:11;;;;;;;120.00;43.87;;;0.60;99.90;;;;;;5065921;28;20207;-65
2023/02/10 01:11:18;;;;;;;115.47;44.40;;;0.60;99.90;;;;;;5067750;28;20207;-65
2023/02/10 01:14:24;;;;;;;115.80;42.40;;;0.60;99.90;;;;;;5068066;28;20219;-65
2023/02/10 01:17:30;;;;;;;113.63;43.90;;;0.50;99.90;;;;;;5064658;28;20223;-65
2023/02/10 01:20:39;;;;;;;132.43;45.50;;;0.50;99.90;;;;;;5064858;28;20219;-65
2023/02/10 01:23:47;;;;;;;131.17;45.57;;;0.40;99.90;;;;;;5066661;28;20245;-66
2023/02/10 01:26:53;;;;;;;121.43;45.97;;;0.40;99.90;;;;;;5065484;28;20249;-65
2023/02/10 01:30:02;;;;;;;143.80;46.53;;;0.30;99.90;;;;;;5067085;28;20250;-65
2023/02/10 01:33:07;;;;;;;132.93;46.60;;;0.30;99.90;;;;;;5066774;28;20227;-65
2023/02/10 01:36:16;;;;;;;130.70;47.53;;;0.30;99.90;;;;;;5067967;28;20252;-65
2023/02/10 01:39:23;;;;;;;127.03;45.70;;;0.20;99.90;;;;;;5067920;28;20684;-65
2023/02/10 01:42:29;;;;;;;117.87;43.43;;;0.20;99.90;;;;;;5067865;28;20203;-65
2023/02/10 01:45:36;;;;;;;118.77;44.20;;;0.10;99.90;;;;;;5068968;28;20247;-65
2023/02/10 01:48:43;;;;;;;117.13;42.30;;;0.10;99.90;;;;;;5067800;28;20223;-65
2023/02/10 01:51:53;;;;;;;131.53;45.23;;;0.00;99.90;;;;;;5070824;28;20207;-65
2023/02/10 01:55:04;;;;;;;114.60;42.90;;;0.00;99.90;;;;;;5066319;28;20223;-65
2023/02/10 01:58:13;;;;;;;119.87;44.80;;;-0.10;99.90;;;;;;5064924;28;20307;-65
2023/02/10 02:01:19;;;;;;;121.40;42.70;;;0.00;99.90;;;;;;5067444;28;20616;-65
2023/02/10 02:04:24;;;;;;;115.07;41.83;;;0.00;99.90;;;;;;5062380;28;20311;-65
2023/02/10 02:07:34;;;;;;;110.03;43.23;;;0.00;99.90;;;;;;5070564;28;20215;-65
2023/02/10 02:10:55;;;;;;;120.27;43.37;;;0.00;99.90;;;;;;5073935;28;20209;-66
2023/02/10 02:14:31;;;;;;;113.97;42.90;;;0.00;99.90;;;;;;5075043;28;20216;-65
2023/02/10 02:17:45;;;;;;;121.80;44.60;;;0.00;99.90;;;;;;5074259;28;20258;-65
2023/02/10 02:21:23;;;;;;;106.57;43.73;;;0.00;99.90;;;;;;5070333;28;20249;-65
2023/02/10 02:24:44;;;;;;;147.05;61.40;;;0.00;99.90;;;;;;5073181;28;21196;-65
2023/02/10 02:28:09;;;;;;;132.07;48.97;;;-0.10;99.90;;;;;;5072582;28;20222;-65
2023/02/10 02:32:01;;;;;;;126.43;44.90;;;-0.10;99.90;;;;;;5071898;28;20600;-65
2023/02/10 02:35:11;;;;;;;114.17;43.43;;;-0.20;99.90;;;;;;5059848;28;20222;-66
2023/02/10 02:38:17;;;;;;;114.83;45.30;;;-0.30;99.90;;;;;;5072916;28;20257;-65
2023/02/10 02:41:24;;;;;;;120.73;44.97;;;-0.40;99.90;;;;;;5074071;28;20195;-65
2023/02/10 02:44:30;;;;;;;119.77;44.43;;;-0.40;99.90;;;;;;5070503;28;20397;-65
2023/02/10 02:47:53;;;;;;;109.90;43.93;;;-0.40;99.90;;;;;;5076753;28;20304;-65
2023/02/10 02:51:06;;;;;;;113.30;42.80;;;-0.40;99.90;;;;;;5069425;28;20408;-65
2023/02/10 02:54:21;;;;;;;108.57;44.23;;;-0.50;99.90;;;;;;5072163;28;20219;-65
2023/02/10 02:57:35;;;;;;;107.97;42.53;;;-0.60;99.90;;;;;;5069315;28;20219;-66
2023/02/10 03:00:43;;;;;;;116.43;44.57;;;-0.70;99.90;;;;;;5070534;28;20239;-66
2023/02/10 03:03:49;;;;;;;105.23;41.50;;;-0.70;99.90;;;;;;5067145;28;20215;-66
2023/02/10 03:06:57;;;;;;;114.70;42.57;;;-0.80;99.90;;;;;;5071872;28;20199;-65
2023/02/10 03:10:03;;;;;;;126.33;44.07;;;-0.80;99.90;;;;;;5073096;28;20238;-65
2023/02/10 03:13:09;;;;;;;119.83;43.70;;;-0.80;99.90;;;;;;5068057;28;20235;-65
2023/02/10 03:16:15;;;;;;;118.47;43.17;;;-0.70;99.90;;;;;;5069771;28;21000;-65
2023/02/10 03:19:21;;;;;;;122.37;44.03;;;-0.60;99.90;;;;;;5069646;28;20635;-66
2023/02/10 03:22:28;;;;;;;119.20;43.13;;;-0.60;99.90;;;;;;5072872;28;20771;-65
2023/02/10 03:25:34;;;;;;;124.30;44.50;;;-0.60;99.90;;;;;;5071699;28;20258;-65
2023/02/10 03:28:39;;;;;;;130.40;46.57;;;-0.60;99.90;;;;;;5067073;28;20271;-65
2023/02/10 03:31:45;;;;;;;123.57;44.60;;;-0.70;99.90;;;;;;5067556;28;20849;-65
2023/02/10 03:34:51;;;;;;;128.27;44.70;;;-0.70;99.90;;;;;;5074675;28;20253;-65
2023/02/10 03:37:59;;;;;;;134.57;46.23;;;-0.80;99.90;;;;;;5076797;28;20251;-65
2023/02/10 03:41:04;;;;;;;126.73;44.83;;;-0.80;99.90;;;;;;5078273;28;20187;-65
2023/02/10 03:44:10;;;;;;;122.90;43.20;;;-0.90;99.90;;;;;;5072665;28;20241;-65
2023/02/10 03:47:16;;;;;;;122.83;44.37;;;-0.90;99.90;;;;;;5070857;28;20215;-65
2023/02/10 03:50:22;;;;;;;126.53;43.37;;;-1.00;99.90;;;;;;5069143;28;20624;-65
2023/02/10 03:53:30;;;;;;;142.30;44.37;;;-1.00;99.90;;;;;;5070332;28;20268;-65
2023/02/10 03:56:36;;;;;;;128.67;43.57;;;-1.00;99.90;;;;;;5072393;28;20199;-65
2023/02/10 03:59:42;;;;;;;148.43;45.10;;;-1.10;99.90;;;;;;5070020;28;20352;-65
2023/02/10 04:02:49;;;;;;;140.97;45.60;;;-1.00;99.90;;;;;;5069116;28;20677;-65
2023/02/10 04:05:54;;;;;;;161.23;46.10;;;-1.00;99.90;;;;;;5067027;28;20222;-65
2023/02/10 04:09:04;;;;;;;159.30;46.60;;;-0.90;99.90;;;;;;5069714;28;20234;-65
2023/02/10 04:12:10;;;;;;;144.90;46.87;;;-0.70;99.90;;;;;;5069189;28;20261;-65
2023/02/10 04:15:16;;;;;;;161.17;49.13;;;-0.50;99.90;;;;;;5068519;28;20219;-65
2023/02/10 04:18:24;;;;;;;163.53;48.77;;;-0.40;99.90;;;;;;5068659;28;20295;-65
2023/02/10 04:21:33;;;;;;;172.77;51.17;;;-0.30;99.90;;;;;;5068528;28;21236;-66
2023/02/10 04:24:40;;;;;;;158.97;50.53;;;-0.10;99.90;;;;;;5068371;28;20226;-65
2023/02/10 04:27:46;;;;;;;181.03;54.03;;;-0.10;99.90;;;;;;5068601;28;20685;-65
2023/02/10 04:30:53;;;;;;;175.27;53.23;;;0.00;99.90;;;;;;5069813;28;20281;-65
2023/02/10 04:33:59;;;;;;;168.80;51.73;;;-0.10;99.90;;;;;;5067576;28;20239;-65
2023/02/10 04:37:05;;;;;;;176.20;52.53;;;-0.20;99.90;;;;;;5069191;28;20820;-65
2023/02/10 04:40:13;;;;;;;150.87;51.00;;;-0.10;99.90;;;;;;5068612;28;20214;-65
2023/02/10 04:43:18;;;;;;;160.87;53.20;;;0.10;99.90;;;;;;5068528;28;20834;-65
2023/02/10 04:46:24;;;;;;;147.77;52.73;;;0.30;99.90;;;;;;5071262;28;20311;-65
2023/02/10 04:49:30;;;;;;;157.50;55.07;;;0.30;99.90;;;;;;5067665;28;20711;-65
2023/02/10 04:52:36;;;;;;;165.30;54.17;;;0.40;99.90;;;;;;5067581;28;20827;-65
2023/02/10 04:55:43;;;;;;;156.83;52.97;;;0.40;99.90;;;;;;5069837;28;20206;-65
2023/02/10 04:58:49;;;;;;;149.40;54.30;;;0.50;99.90;;;;;;5066996;28;20234;-65
2023/02/10 05:01:55;;;;;;;156.83;53.77;;;0.60;99.90;;;;;;5068938;28;20262;-65
2023/02/10 05:05:01;;;;;;;159.30;54.50;;;0.60;99.90;;;;;;5069159;28;20230;-65
2023/02/10 05:08:07;;;;;;;168.60;55.50;;;0.50;99.90;;;;;;5068745;28;20199;-65
2023/02/10 05:11:17;;;;;;;152.97;52.90;;;0.50;99.90;;;;;;5069248;28;20245;-65
2023/02/10 05:14:22;;;;;;;150.10;54.67;;;0.50;99.90;;;;;;5067584;28;20946;-65
2023/02/10 05:17:31;;;;;;;151.53;56.10;;;0.60;99.90;;;;;;5068817;28;20235;-66
2023/02/10 05:20:37;;;;;;;160.77;56.43;;;0.60;99.90;;;;;;5063100;28;20589;-65
2023/02/10 05:23:44;;;;;;;160.57;55.17;;;0.50;99.90;;;;;;5071943;28;20195;-65
2023/02/10 05:26:51;;;;;;;153.27;53.87;;;0.40;99.90;;;;;;5069261;28;22049;-65
2023/02/10 05:29:57;;;;;;;152.80;52.73;;;0.30;99.90;;;;;;5069087;28;20217;-65
2023/02/10 05:33:02;;;;;;;135.90;50.87;;;0.10;99.90;;;;;;5070314;28;20215;-65
2023/02/10 05:36:09;;;;;;;142.00;50.87;;;-0.10;99.90;;;;;;5071414;28;20230;-65
2023/02/10 05:39:24;;;;;;;145.30;50.17;;;-0.20;99.90;;;;;;5070247;28;20203;-65
2023/02/10 05:42:32;;;;;;;150.67;52.23;;;-0.20;99.90;;;;;;5070788;28;20245;-65
2023/02/10 05:45:37;;;;;;;146.43;51.67;;;-0.40;99.90;;;;;;5075247;28;20242;-65
2023/02/10 05:48:45;;;;;;;146.50;50.80;;;-0.40;99.90;;;;;;5071838;28;20634;-66
2023/02/10 05:51:51;;;;;;;160.20;52.70;;;-0.40;99.90;;;;;;5074282;28;20254;-65
2023/02/10 05:55:02;;;;;;;150.53;50.80;;;-0.30;99.90;;;;;;5068871;28;20218;-65
2023/02/10 05:58:09;;;;;;;152.03;51.73;;;-0.30;99.90;;;;;;5072866;28;20199;-65
2023/02/10 06:01:15;;;;;;;160.03;51.77;;;-0.40;99.90;;;;;;5070827;28;20223;-64
2023/02/10 06:04:21;;;;;;;146.47;49.60;;;-0.50;99.90;;;;;;5068628;28;20218;-65
2023/02/10 06:07:27;;;;;;;138.70;49.93;;;-0.60;99.90;;;;;;5074286;28;20218;-65
2023/02/10 06:10:33;;;;;;;154.23;51.20;;;-0.80;99.90;;;;;;5075543;28;20274;-65
2023/02/10 06:13:41;;;;;;;164.50;53.50;;;-0.60;99.90;;;;;;5068744;28;20756;-65
2023/02/10 06:16:47;;;;;;;152.67;54.33;;;-0.50;99.90;;;;;;5069095;28;20811;-65
2023/02/10 06:19:53;;;;;;;146.30;49.57;;;-0.50;99.90;;;;;;5070551;28;20318;-65
2023/02/10 06:22:59;;;;;;;155.07;52.83;;;-0.70;99.90;;;;;;5071821;28;20268;-65
2023/02/10 06:26:05;;;;;;;150.60;51.27;;;-0.70;99.90;;;;;;5065514;28;20211;-65
2023/02/10 06:29:12;;;;;;;159.87;53.17;;;-0.60;99.90;;;;;;5067626;28;20223;-65
2023/02/10 06:32:18;;;;;;;149.10;52.80;;;-0.60;99.90;;;;;;5069102;28;20246;-64
2023/02/10 06:35:24;;;;;;;141.27;49.43;;;-0.70;99.90;;;;;;5069567;28;20696;-65
2023/02/10 06:38:30;;;;;;;147.50;51.13;;;-0.90;99.90;;;;;;5066437;28;20802;-64
2023/02/10 06:41:36;;;;;;;138.07;50.23;;;-1.00;99.90;;;;;;5071565;28;20334;-64
2023/02/10 06:44:43;;;;;;;146.20;50.30;;;-1.00;99.90;;;;;;5070082;28;20269;-64
2023/02/10 06:47:48;;;;;;;154.57;50.30;;;-1.00;99.90;;;;;;5067744;28;20284;-65
2023/02/10 06:50:54;;;;;;;168.47;52.47;;;-0.90;99.90;;;;;;5069388;28;20261;-65
2023/02/10 06:54:00;;;;;;;144.37;50.67;;;-0.80;99.90;;;;;;5071686;28;20255;-64
2023/02/10 06:57:05;;;;;;;145.60;50.87;;;-0.70;99.90;;;;;;5070377;28;20202;-65
2023/02/10 07:00:15;;;;;;;149.93;51.77;;;-0.70;99.90;;;;;;5057746;28;20238;-65
2023/02/10 07:03:21;;;;;;;151.00;50.70;;;-0.60;99.90;;;;;;5068440;28;20235;-65
2023/02/10 07:06:27;;;;;;;153.73;53.53;;;-0.50;99.90;;;;;;5070569;28;20230;-65
2023/02/10 07:09:33;;;;;;;152.83;53.47;;;-0.40;99.90;;;;;;5069484;28;20227;-64
2023/02/10 07:12:40;;;;;;;169.50;57.50;;;-0.20;99.90;;;;;;5070580;28;20226;-65
2023/02/10 07:15:47;;;;;;;165.17;57.23;;;0.00;99.90;;;;;;5067355;28;20256;-65
2023/02/10 07:18:54;;;;;;;176.30;60.07;;;0.20;99.90;;;;;;5069207;28;20242;-65
2023/02/10 07:22:04;;;;;;;183.17;61.27;;;0.30;99.90;;;;;;5067938;28;20333;-65
2023/02/10 07:25:10;;;;;;;163.90;56.27;;;0.40;99.90;;;;;;5072637;28;20654;-65
2023/02/10 07:28:17;;;;;;;188.37;61.00;;;0.50;99.90;;;;;;5069191;28;20202;-65
2023/02/10 07:31:24;;;;;;;166.43;58.97;;;0.50;99.90;;;;;;5064656;28;20280;-65
2023/02/10 07:34:33;;;;;;;167.03;58.23;;;0.50;99.90;;;;;;5057857;28;20218;-65
2023/02/10 07:37:40;;;;;;;172.30;58.50;;;0.50;99.90;;;;;;5066310;28;20258;-65
2023/02/10 07:40:46;;;;;;;172.10;59.93;;;0.50;99.90;;;;;;5071586;28;20191;-65
2023/02/10 07:43:52;;;;;;;177.00;59.90;;;0.70;99.90;;;;;;5081377;28;20216;-65
2023/02/10 07:46:59;;;;;;;176.20;65.30;;;1.00;99.90;;;;;;5052283;28;20272;-66
2023/02/10 07:50:05;;;;;;;192.83;65.27;;;1.40;99.90;;;;;;5065066;28;20241;-65
2023/02/10 07:53:11;;;;;;;186.30;66.33;;;1.50;99.90;;;;;;5066512;28;20234;-66
2023/02/10 07:56:17;;;;;;;173.63;58.40;;;1.70;99.90;;;;;;5066061;28;20216;-66
2023/02/10 07:59:24;;;;;;;194.03;61.10;;;1.80;99.90;;;;;;5063156;28;20236;-66
2023/02/10 08:02:31;;;;;;;223.63;63.47;;;1.80;99.90;;;;;;5064681;28;20292;-66
2023/02/10 08:05:37;;;;;;;177.77;58.67;;;1.80;99.90;;;;;;5069251;28;20229;-65
2023/02/10 08:08:43;;;;;;;245.03;63.73;;;1.90;99.90;;;;;;5067189;28;20326;-65
2023/02/10 08:11:49;;;;;;;250.07;64.43;;;2.00;99.90;;;;;;5071844;28;20309;-66
2023/02/10 08:14:54;;;;;;;268.93;64.13;;;2.00;99.90;;;;;;5066649;28;20227;-66
2023/02/10 08:18:02;;;;;;;199.87;62.80;;;2.10;99.90;;;;;;5066689;28;20227;-66
2023/02/10 08:21:09;;;;;;;211.43;63.87;;;2.20;99.90;;;;;;5063675;28;20226;-66
2023/02/10 08:24:15;;;;;;;311.80;66.93;;;2.30;99.90;;;;;;5068732;28;20249;-65
2023/02/10 08:27:21;;;;;;;374.83;68.87;;;2.30;99.90;;;;;;5068124;28;20206;-65
2023/02/10 08:30:27;;;;;;;287.60;67.93;;;2.40;99.90;;;;;;5066885;28;20735;-66
2023/02/10 08:33:37;;;;;;;286.03;69.93;;;2.40;99.90;;;;;;5062075;28;20284;-65
2023/02/10 08:36:51;;;;;;;341.87;71.47;;;2.60;99.90;;;;;;5062205;28;20207;-65
2023/02/10 08:39:58;;;;;;;320.17;69.83;;;2.70;99.90;;;;;;5066273;28;20238;-65
2023/02/10 08:43:04;;;;;;;254.70;68.93;;;2.70;99.90;;;;;;5065854;28;20222;-66
2023/02/10 08:46:11;;;;;;;283.47;72.07;;;2.80;99.90;;;;;;5067212;28;20239;-66
2023/02/10 08:49:18;;;;;;;252.70;68.67;;;2.90;99.90;;;;;;5063975;28;20284;-66
2023/02/10 08:52:24;;;;;;;333.00;75.93;;;3.10;99.90;;;;;;5060197;28;20745;-65
2023/02/10 08:55:30;;;;;;;225.50;66.93;;;3.10;99.90;;;;;;5067756;28;20223;-65
2023/02/10 08:58:36;;;;;;;288.90;72.67;;;3.10;99.90;;;;;;5066284;28;20304;-65
2023/02/10 09:01:42;;;;;;;240.13;71.23;;;3.20;99.90;;;;;;5070092;28;21449;-65
2023/02/10 09:04:49;;;;;;;252.63;69.50;;;3.30;99.90;;;;;;5066775;28;20219;-66
2023/02/10 09:08:12;;;;;;;258.53;69.57;;;3.40;99.90;;;;;;5062092;28;20243;-65
2023/02/10 09:11:19;;;;;;;271.63;73.00;;;3.40;99.90;;;;;;5064340;28;20260;-66
2023/02/10 09:14:24;;;;;;;233.27;71.57;;;3.40;99.90;;;;;;5062472;28;20744;-65
2023/02/10 09:17:30;;;;;;;245.50;68.27;;;3.50;99.90;;;;;;5070625;28;20280;-65
2023/02/10 09:20:38;;;;;;;262.73;69.13;;;3.60;99.90;;;;;;5065857;28;20245;-66
2023/02/10 09:23:44;;;;;;;232.83;68.53;;;3.70;99.90;;;;;;5068859;28;20952;-66
2023/02/10 09:26:50;;;;;;;229.60;70.00;;;3.80;99.90;;;;;;5068927;28;20210;-66
2023/02/10 09:29:56;;;;;;;269.90;69.03;;;3.90;99.90;;;;;;5067981;28;20656;-66
2023/02/10 09:33:02;;;;;;;227.53;67.30;;;4.00;99.90;;;;;;5070440;28;20723;-65
2023/02/10 09:36:14;;;;;;;265.77;69.17;;;4.20;99.90;;;;;;5071563;28;20287;-66
2023/02/10 09:39:20;;;;;;;254.20;70.23;;;4.20;99.90;;;;;;5070437;28;20702;-65
2023/02/10 09:42:37;;;;;;;262.17;66.70;;;4.10;99.90;;;;;;5069740;28;20869;-65
2023/02/10 09:45:43;;;;;;;235.93;66.10;;;4.10;99.90;;;;;;5070178;28;20338;-66
2023/02/10 09:49:01;;;;;;;222.93;63.23;;;4.20;99.90;;;;;;5070679;28;20218;-65
2023/02/10 09:52:18;;;;;;;203.90;63.27;;;4.30;99.90;;;;;;5072260;28;20195;-65
2023/02/10 09:55:28;;;;;;;195.20;62.33;;;4.40;99.90;;;;;;5070416;28;20269;-66
2023/02/10 09:58:38;;;;;;;210.63;63.37;;;4.50;99.90;;;;;;5071520;28;20207;-66
2023/02/10 10:01:47;;;;;;;202.77;61.40;;;4.60;99.90;;;;;;5068707;28;20199;-65
2023/02/10 10:04:54;;;;;;;215.83;64.73;;;4.70;99.90;;;;;;5070199;28;20235;-66
2023/02/10 10:08:03;;;;;;;201.77;59.23;;;4.70;99.90;;;;;;5068285;28;20245;-65
2023/02/10 10:11:28;;;;;;;211.93;63.53;;;4.70;99.90;;;;;;5067105;28;20705;-65
2023/02/10 10:14:36;;;;;;;186.27;55.23;;;4.70;99.90;;;;;;5067715;28;20231;-66
2023/02/10 10:17:55;;;;;;;200.23;58.33;;;4.70;99.90;;;;;;5070561;28;20218;-66
2023/02/10 10:21:10;;;;;;;192.83;58.13;;;4.70;99.90;;;;;;5069831;28;20273;-66
2023/02/10 10:24:30;;;;;;;184.90;57.37;;;4.80;99.90;;;;;;5068438;28;20754;-66
2023/02/10 10:27:48;;;;;;;181.20;57.50;;;4.80;99.90;;;;;;5068413;28;20240;-66
2023/02/10 10:31:01;;;;;;;184.73;57.67;;;4.90;99.90;;;;;;5063724;28;20266;-66
2023/02/10 10:34:13;;;;;;;183.57;59.47;;;4.90;99.90;;;;;;5067858;28;20239;-66
2023/02/10 10:37:22;;;;;;;188.23;60.30;;;4.90;99.90;;;;;;5068497;28;20557;-66
2023/02/10 10:40:33;;;;;;;179.00;58.90;;;5.00;99.90;;;;;;5065493;28;20357;-66
2023/02/10 10:43:43;;;;;;;166.53;54.57;;;5.00;99.90;;;;;;5066583;28;20269;-66
2023/02/10 10:46:52;;;;;;;151.60;51.07;;;5.20;99.90;;;;;;5068928;28;20243;-66
2023/02/10 10:49:58;;;;;;;138.97;51.87;;;5.30;99.90;;;;;;5065711;28;20215;-66
2023/02/10 10:53:16;;;;;;;143.87;48.47;;;5.30;99.90;;;;;;5064990;28;20199;-66
2023/02/10 10:56:32;;;;;;;150.03;47.67;;;5.30;99.90;;;;;;5068359;28;20264;-66
2023/02/10 10:59:42;;;;;;;130.10;44.87;;;5.40;99.90;;;;;;5066849;28;20219;-66
2023/02/10 11:02:59;;;;;;;152.70;44.33;;;5.40;99.90;;;;;;5067807;28;20667;-66
2023/02/10 11:06:09;;;;;;;140.67;40.43;;;5.50;99.90;;;;;;5066657;28;20586;-66
2023/02/10 11:09:29;;;;;;;120.37;39.73;;;5.60;99.90;;;;;;5020417;28;1413952;-66
2023/02/10 11:12:40;;;;;;;125.77;40.03;;;5.70;99.90;;;;;;5067440;28;20730;-66
2023/02/10 11:15:48;;;;;;;126.03;39.90;;;5.80;99.90;;;;;;5062872;28;20700;-66
2023/02/10 11:18:56;;;;;;;128.93;40.70;;;6.10;99.90;;;;;;5072320;28;20222;-66
2023/02/10 11:22:02;;;;;;;124.63;38.77;;;6.20;99.90;;;;;;5066467;28;20296;-66
2023/02/10 11:25:27;;;;;;;117.63;38.03;;;6.20;99.90;;;;;;5066453;28;20218;-66
2023/02/10 11:28:35;;;;;;;112.90;36.53;;;6.50;99.90;;;;;;5063936;28;21103;-66
2023/02/10 11:31:41;;;;;;;97.40;35.33;;;6.60;99.90;;;;;;5070773;28;20203;-66
2023/02/10 11:34:49;;;;;;;105.07;36.63;;;6.70;99.90;;;;;;5067158;28;20243;-66
2023/02/10 11:37:57;;;;;;;95.37;35.90;;;6.80;99.90;;;;;;5064659;28;20720;-66
2023/02/10 11:41:08;;;;;;;96.27;34.73;;;6.80;99.90;;;;;;5066858;28;20235;-66
2023/02/10 11:44:25;;;;;;;98.77;34.37;;;6.90;99.90;;;;;;5067287;28;20233;-66
2023/02/10 11:47:33;;;;;;;90.43;34.13;;;6.90;99.90;;;;;;5068617;28;20215;-66
2023/02/10 11:50:38;;;;;;;98.60;36.93;;;6.90;99.90;;;;;;5068527;28;20276;-66
2023/02/10 11:53:47;;;;;;;108.20;38.53;;;6.90;99.90;;;;;;5068477;28;20195;-66
2023/02/10 12:00:36;;;;;;;98.67;38.80;;;6.90;99.90;;;;;;5068046;28;20285;-66
2023/02/10 12:04:02;;;;;;;91.60;36.07;;;7.00;99.90;;;;;;5066846;28;20223;-66
2023/02/10 12:07:19;;;;;;;112.03;38.47;;;7.00;99.90;;;;;;5062686;28;20231;-66
2023/02/10 12:10:30;;;;;;;96.37;35.37;;;7.10;99.90;;;;;;5066641;28;20219;-66
2023/02/10 12:13:48;;;;;;;85.70;33.77;;;7.00;99.90;;;;;;5062325;28;21097;-66
2023/02/10 12:17:04;;;;;;;79.60;29.50;;;6.90;99.90;;;;;;5058782;28;20277;-66
2023/02/10 12:20:30;;;;;;;74.87;28.87;;;6.80;99.90;;;;;;5066198;28;20227;-66
2023/02/10 12:23:49;;;;;;;78.17;29.93;;;6.70;99.90;;;;;;5057873;28;20218;-66
2023/02/10 12:26:57;;;;;;;84.67;29.73;;;6.70;99.90;;;;;;5067013;28;20223;-66
2023/02/10 12:30:08;;;;;;;92.13;31.23;;;6.80;99.90;;;;;;5066193;28;20294;-66
2023/02/10 12:33:34;;;;;;;96.50;31.70;;;6.80;99.90;;;;;;5066376;28;20262;-66
2023/02/10 12:36:49;;;;;;;107.47;34.67;;;6.70;99.90;;;;;;5063906;28;20235;-66
2023/02/10 12:40:06;;;;;;;120.10;36.97;;;6.70;99.90;;;;;;5066018;28;20215;-66
2023/02/10 12:43:31;;;;;;;109.97;36.00;;;6.70;99.90;;;;;;5067716;28;20196;-65
2023/02/10 12:46:46;;;;;;;117.13;38.53;;;6.70;99.90;;;;;;5064931;28;20223;-65
2023/02/10 12:50:03;;;;;;;122.80;36.97;;;6.80;99.90;;;;;;5068001;28;20365;-65
2023/02/10 12:53:14;;;;;;;110.23;37.30;;;6.80;99.90;;;;;;5064705;28;20325;-66
2023/02/10 12:56:24;;;;;;;130.33;38.90;;;6.90;99.90;;;;;;5065247;28;20286;-66
2023/02/10 12:59:36;;;;;;;128.43;38.90;;;6.90;99.90;;;;;;5067616;28;20203;-66
2023/02/10 13:02:45;;;;;;;120.47;37.23;;;6.90;99.90;;;;;;5068550;28;20199;-65
2023/02/10 13:05:59;;;;;;;121.03;38.47;;;7.00;99.90;;;;;;5067154;28;20756;-66
2023/02/10 13:09:13;;;;;;;132.97;39.70;;;7.10;99.90;;;;;;5064122;28;20227;-66
2023/02/10 13:12:24;;;;;;;136.73;39.63;;;7.10;99.90;;;;;;5068008;28;20276;-66
2023/02/10 13:15:34;;;;;;;134.93;40.50;;;7.00;99.90;;;;;;5065657;28;20219;-65
2023/02/10 13:18:49;;;;;;;136.23;40.67;;;7.00;99.90;;;;;;5067243;28;20211;-65
2023/02/10 13:22:03;;;;;;;132.63;40.47;;;7.00;99.90;;;;;;5066317;28;20303;-66
2023/02/10 13:25:12;;;;;;;131.23;39.33;;;7.10;99.90;;;;;;5068919;28;20269;-65
2023/02/10 13:28:26;;;;;;;142.27;39.47;;;7.10;99.90;;;;;;5064846;28;20245;-65
2023/02/10 13:31:48;;;;;;;152.87;44.03;;;7.20;99.90;;;;;;5067912;28;20215;-66
2023/02/10 13:34:57;;;;;;;145.07;42.37;;;7.50;99.90;;;;;;5065878;28;20264;-65
2023/02/10 13:38:11;;;;;;;114.63;39.03;;;7.80;99.90;;;;;;5066866;28;20215;-65
2023/02/10 13:41:45;;;;;;;121.90;38.63;;;8.10;99.90;;;;;;5063779;28;20218;-65
2023/02/10 13:45:00;;;;;;;110.83;36.70;;;8.30;99.90;;;;;;5063797;28;20226;-66
2023/02/10 13:48:08;;;;;;;114.50;38.30;;;8.30;99.90;;;;;;5068137;28;20231;-66
2023/02/10 13:51:14;;;;;;;105.57;36.53;;;8.30;99.90;;;;;;5066234;28;20214;-66
2023/02/10 13:54:29;;;;;;;115.93;37.57;;;8.20;99.90;;;;;;5069402;28;20238;-66
2023/02/10 13:57:38;;;;;;;107.37;36.40;;;8.00;99.90;;;;;;5064911;28;20596;-66
2023/02/10 14:00:45;;;;;;;94.87;35.63;;;7.80;99.90;;;;;;5061159;28;20816;-66
2023/02/10 14:03:56;;;;;;;94.00;34.97;;;7.70;99.90;;;;;;5069513;28;20732;-66
2023/02/10 14:07:03;;;;;;;89.17;33.23;;;7.80;99.90;;;;;;5068457;28;20223;-66
2023/02/10 14:10:30;;;;;;;85.73;33.57;;;7.80;99.90;;;;;;5070075;28;20234;-65
2023/02/10 14:13:37;;;;;;;94.03;34.10;;;8.00;99.90;;;;;;5070580;28;20203;-66
2023/02/10 14:16:45;;;;;;;83.87;32.27;;;8.10;99.90;;;;;;5070032;28;20616;-66
2023/02/10 14:19:52;;;;;;;82.07;32.77;;;8.20;99.90;;;;;;5072385;28;20227;-65
2023/02/10 14:22:58;;;;;;;82.63;31.80;;;8.20;99.90;;;;;;5071910;28;20820;-66
2023/02/10 14:26:07;;;;;;;72.37;31.37;;;8.30;99.90;;;;;;5067577;28;20816;-65
2023/02/10 14:29:15;;;;;;;79.63;31.43;;;8.40;99.90;;;;;;5066501;28;20664;-66
2023/02/10 14:32:23;;;;;;;74.57;30.60;;;8.40;99.90;;;;;;5069141;28;20254;-65
2023/02/10 14:35:34;;;;;;;74.30;31.00;;;8.40;99.90;;;;;;5067653;28;20250;-66
2023/02/10 14:38:41;;;;;;;74.73;31.33;;;8.50;99.90;;;;;;5069741;28;20257;-66
2023/02/10 14:41:48;;;;;;;68.90;29.57;;;8.50;99.90;;;;;;5071662;28;20908;-65
2023/02/10 14:44:56;;;;;;;73.70;30.43;;;8.40;99.90;;;;;;5068535;28;20195;-65
2023/02/10 14:48:02;;;;;;;61.60;28.93;;;8.30;99.90;;;;;;5070164;28;20199;-65
2023/02/10 14:51:20;;;;;;;67.20;29.50;;;8.30;99.90;;;;;;5066822;28;20234;-65
2023/02/10 14:54:27;;;;;;;73.17;30.27;;;8.20;99.90;;;;;;5058638;28;20220;-66
2023/02/10 14:57:34;;;;;;;71.20;30.40;;;8.20;99.90;;;;;;5060624;28;20246;-66
2023/02/10 15:00:43;;;;;;;67.30;29.10;;;8.20;99.90;;;;;;5066402;28;20582;-66
2023/02/10 15:03:49;;;;;;;69.77;29.27;;;8.20;99.90;;;;;;5071194;28;20302;-66
2023/02/10 15:06:57;;;;;;;68.93;30.80;;;8.10;99.90;;;;;;5070285;28;20219;-66
2023/02/10 15:10:14;;;;;;;66.70;28.97;;;8.10;99.90;;;;;;5072111;28;20430;-66
2023/02/10 15:13:26;;;;;;;67.43;28.67;;;8.20;99.90;;;;;;5067063;28;20215;-66
2023/02/10 15:16:33;;;;;;;66.30;28.40;;;8.20;99.90;;;;;;5063927;28;20280;-66
2023/02/10 15:19:50;;;;;;;67.27;28.67;;;8.20;99.90;;;;;;5067348;28;20226;-66
2023/02/10 15:23:11;;;;;;;69.73;30.53;;;8.00;99.90;;;;;;5069371;28;20215;-66
2023/02/10 15:26:39;;;;;;;68.33;30.93;;;7.90;99.90;;;;;;5069501;28;20237;-66
2023/02/10 15:29:46;;;;;;;75.87;31.83;;;7.90;99.90;;;;;;5066329;28;20198;-66
2023/02/10 15:32:54;;;;;;;73.87;31.50;;;7.80;99.90;;;;;;5067016;28;20212;-66
2023/02/10 15:36:13;;;;;;;72.97;31.27;;;7.80;99.90;;;;;;5068371;28;20262;-66
2023/02/10 15:39:23;;;;;;;72.20;31.17;;;7.80;99.90;;;;;;5065748;28;20234;-66
2023/02/10 15:42:32;;;;;;;77.30;32.50;;;7.70;99.90;;;;;;5068390;28;20226;-66
2023/02/10 15:45:40;;;;;;;73.37;31.43;;;7.70;99.90;;;;;;5066932;28;21075;-66
2023/02/10 15:48:46;;;;;;;78.63;33.30;;;7.70;99.90;;;;;;5070335;28;20226;-66
2023/02/10 15:51:54;;;;;;;71.80;31.00;;;7.70;99.90;;;;;;5065784;28;20233;-66
2023/02/10 15:55:03;;;;;;;72.83;33.10;;;7.60;99.90;;;;;;5067550;28;20259;-66
2023/02/10 15:58:11;;;;;;;75.07;30.03;;;7.60;99.90;;;;;;5067883;28;20274;-66
2023/02/10 16:01:20;;;;;;;76.30;30.80;;;7.50;99.90;;;;;;5066540;28;20295;-66
2023/02/10 16:04:27;;;;;;;71.17;30.10;;;7.50;99.90;;;;;;5070238;28;20223;-66